Time;durP1;ratioP1;P1;durP2;ratioP2;P2;SDS_P1;SDS_P2;PMS_P1;PMS_P2;Temp;Humidity;BMP_temperature;BMP_pressure;BME280_temperature;BME280_humidity;BME280_pressure;Samples;Min_cycle;Max_cycle;Signal;HPM_P1;HPM_P2
2023/01/14 00:01:59;;;;;;;7.43;5.32;;;;;;;;;;5073034;28;20059;-58
2023/01/14 00:04:24;;;;;;;6.95;5.40;;;;;;;;;;5072614;28;20033;-63
2023/01/14 00:06:50;;;;;;;7.60;5.60;;;;;;;;;;5072746;28;20052;-59
2023/01/14 00:09:16;;;;;;;6.10;5.20;;;;;;;;;;5054745;28;20031;-59
2023/01/14 00:11:48;;;;;;;6.35;5.25;;;;;;;;;;5072586;28;20031;-59
2023/01/14 00:14:29;;;;;;;6.55;5.28;;;;;;;;;;5072923;28;20111;-59
2023/01/14 00:16:56;;;;;;;5.85;5.10;;;;;;;;;;5072836;28;20422;-59
2023/01/14 00:19:22;;;;;;;6.13;4.93;;;;;;;;;;5072555;28;20051;-59
2023/01/14 00:21:50;;;;;;;8.00;5.50;;;;;;;;;;5072725;28;20020;-62
2023/01/14 00:24:18;;;;;;;6.78;5.53;;;;;;;;;;5072323;28;20043;-59
2023/01/14 00:26:49;;;;;;;7.72;5.63;;;;;;;;;;5072523;28;20405;-61
2023/01/14 00:29:17;;;;;;;8.88;5.28;;;;;;;;;;5072462;28;20024;-59
2023/01/14 00:31:44;;;;;;;7.38;5.63;;;;;;;;;;5072715;28;20463;-59
2023/01/14 00:34:10;;;;;;;6.78;5.32;;;;;;;;;;5072163;28;20044;-59
2023/01/14 00:36:36;;;;;;;6.60;5.20;;;;;;;;;;5072424;28;20052;-59
2023/01/14 00:39:02;;;;;;;8.75;5.40;;;;;;;;;;5072352;28;20020;-59
2023/01/14 00:41:28;;;;;;;8.68;5.28;;;;;;;;;;5072561;28;20025;-59
2023/01/14 00:43:56;;;;;;;9.85;5.38;;;;;;;;;;5072416;28;20021;-59
2023/01/14 00:46:36;;;;;;;9.50;6.15;;;;;;;;;;5072306;28;20081;-59
2023/01/14 00:49:04;;;;;;;6.55;5.25;;;;;;;;;;5072779;28;20048;-59
2023/01/14 00:51:31;;;;;;;6.68;5.47;;;;;;;;;;5079045;28;20028;-60
2023/01/14 00:53:57;;;;;;;7.25;5.47;;;;;;;;;;5078730;28;20039;-59
2023/01/14 00:56:24;;;;;;;7.03;5.72;;;;;;;;;;5078769;28;20033;-58
2023/01/14 00:58:49;;;;;;;7.72;5.75;;;;;;;;;;5078790;28;20452;-59
2023/01/14 01:01:16;;;;;;;7.55;5.30;;;;;;;;;;5078702;28;20107;-59
2023/01/14 01:03:44;;;;;;;7.65;5.68;;;;;;;;;;5078926;28;20043;-59
2023/01/14 01:06:11;;;;;;;7.47;5.65;;;;;;;;;;5078789;28;20029;-59
2023/01/14 01:08:37;;;;;;;6.95;5.30;;;;;;;;;;5078712;28;20074;-59
2023/01/14 01:11:02;;;;;;;6.47;5.45;;;;;;;;;;5079040;28;20028;-59
2023/01/14 01:13:28;;;;;;;10.25;5.78;;;;;;;;;;5078901;28;20376;-59
2023/01/14 01:15:59;;;;;;;6.18;5.13;;;;;;;;;;5078627;28;20035;-59
2023/01/14 01:18:25;;;;;;;6.28;4.88;;;;;;;;;;5078694;28;20021;-59
2023/01/14 01:20:51;;;;;;;6.13;5.13;;;;;;;;;;5078605;28;20361;-59
2023/01/14 01:23:17;;;;;;;7.00;5.60;;;;;;;;;;5078788;28;20103;-59
2023/01/14 01:25:42;;;;;;;5.88;4.95;;;;;;;;;;5078521;28;20464;-59
2023/01/14 01:28:08;;;;;;;7.32;5.57;;;;;;;;;;5078881;28;20032;-59
2023/01/14 01:30:34;;;;;;;6.72;5.43;;;;;;;;;;5078614;28;20024;-59
2023/01/14 01:33:01;;;;;;;6.43;5.10;;;;;;;;;;5078221;28;20118;-60
2023/01/14 01:35:27;;;;;;;6.43;5.00;;;;;;;;;;5078525;28;20098;-60
2023/01/14 01:37:52;;;;;;;7.68;6.07;;;;;;;;;;5078502;28;20025;-59
2023/01/14 01:40:19;;;;;;;7.35;5.50;;;;;;;;;;5078476;28;20036;-59
2023/01/14 01:42:57;;;;;;;6.05;5.18;;;;;;;;;;5078451;28;20021;-59
2023/01/14 01:45:40;;;;;;;8.35;5.45;;;;;;;;;;5078681;28;20093;-59
2023/01/14 01:48:43;;;;;;;10.38;5.80;;;;;;;;;;5060430;28;20043;-58
2023/01/14 01:51:14;;;;;;;6.20;5.13;;;;;;;;;;4977068;28;20037;-59
2023/01/14 01:53:43;;;;;;;7.28;5.68;;;;;;;;;;5045076;28;20033;-59
2023/01/14 01:56:14;;;;;;;6.05;5.10;;;;;;;;;;5078354;28;20547;-58
2023/01/14 01:58:42;;;;;;;6.45;5.47;;;;;;;;;;5078632;28;20130;-58
2023/01/14 02:01:08;;;;;;;7.20;5.50;;;;;;;;;;5057939;28;20090;-58
2023/01/14 02:03:40;;;;;;;6.63;5.38;;;;;;;;;;5075161;28;20024;-58
2023/01/14 02:06:06;;;;;;;7.20;5.55;;;;;;;;;;5075404;28;20025;-59
2023/01/14 02:08:35;;;;;;;7.60;5.53;;;;;;;;;;5075129;28;20464;-59
2023/01/14 02:11:13;;;;;;;8.85;5.32;;;;;;;;;;5074867;28;20364;-59
2023/01/14 02:14:03;;;;;;;7.75;5.50;;;;;;;;;;5074988;28;20536;-62
2023/01/14 02:16:35;;;;;;;7.45;5.65;;;;;;;;;;5074797;28;20024;-59
2023/01/14 02:19:15;;;;;;;6.80;5.50;;;;;;;;;;5074777;28;20029;-59
2023/01/14 02:21:57;;;;;;;7.60;5.50;;;;;;;;;;5074797;28;20043;-59
2023/01/14 02:25:10;;;;;;;6.40;5.15;;;;;;;;;;5074651;28;20111;-59
2023/01/14 02:27:47;;;;;;;7.32;5.00;;;;;;;;;;5052923;28;20031;-59
2023/01/14 02:31:00;;;;;;;6.00;4.63;;;;;;;;;;5074522;28;20068;-59
2023/01/14 02:33:43;;;;;;;6.30;5.20;;;;;;;;;;4973110;28;20050;-59
2023/01/14 02:36:35;;;;;;;6.47;5.18;;;;;;;;;;4973455;28;20097;-59
2023/01/14 02:39:19;;;;;;;7.35;5.70;;;;;;;;;;5047686;28;20477;-58
2023/01/14 02:44:35;;;;;;;6.15;5.15;;;;;;;;;;5074349;28;20051;-59
2023/01/14 02:47:12;;;;;;;7.28;5.10;;;;;;;;;;5074340;28;20025;-58
2023/01/14 02:49:41;;;;;;;6.85;5.15;;;;;;;;;;5074303;28;20048;-58
2023/01/14 02:52:08;;;;;;;7.90;5.95;;;;;;;;;;5074240;28;20020;-59
2023/01/14 02:54:33;;;;;;;6.50;5.15;;;;;;;;;;5074019;28;20038;-58
2023/01/14 02:57:22;;;;;;;7.75;5.75;;;;;;;;;;5074113;28;20099;-58
2023/01/14 03:00:09;;;;;;;6.05;5.28;;;;;;;;;;5074359;28;20111;-59
2023/01/14 03:03:30;;;;;;;7.15;5.25;;;;;;;;;;5073934;28;20024;-59
2023/01/14 03:06:14;;;;;;;7.18;5.78;;;;;;;;;;4972305;28;20550;-59
2023/01/14 03:09:17;;;;;;;6.32;5.28;;;;;;;;;;5073812;28;20036;-59
2023/01/14 03:11:51;;;;;;;6.30;5.13;;;;;;;;;;5036407;28;20488;-59
2023/01/14 03:14:26;;;;;;;5.47;4.78;;;;;;;;;;5073353;28;20069;-59
2023/01/14 03:16:57;;;;;;;7.00;5.22;;;;;;;;;;5073683;28;20066;-59
2023/01/14 03:19:34;;;;;;;6.78;5.20;;;;;;;;;;5073595;28;20361;-59
2023/01/14 03:22:03;;;;;;;5.72;5.03;;;;;;;;;;5073626;28;20020;-60
2023/01/14 03:24:35;;;;;;;7.28;5.47;;;;;;;;;;5073648;28;20032;-59
2023/01/14 03:27:08;;;;;;;6.03;4.82;;;;;;;;;;5073443;28;20059;-58
2023/01/14 03:29:37;;;;;;;6.68;5.53;;;;;;;;;;5073335;28;20024;-59
2023/01/14 03:32:18;;;;;;;6.97;4.93;;;;;;;;;;5055419;28;20271;-59
2023/01/14 03:34:49;;;;;;;7.80;5.30;;;;;;;;;;5073193;28;20090;-59
2023/01/14 03:37:18;;;;;;;7.28;5.22;;;;;;;;;;5073560;28;20377;-58
2023/01/14 03:39:47;;;;;;;7.80;5.60;;;;;;;;;;5073192;28;20388;-58
2023/01/14 03:42:18;;;;;;;6.32;5.38;;;;;;;;;;5073077;28;20042;-59
2023/01/14 03:45:03;;;;;;;6.00;4.97;;;;;;;;;;5072992;28;20036;-59
2023/01/14 03:47:34;;;;;;;6.43;4.85;;;;;;;;;;5073032;28;20111;-59
2023/01/14 03:50:02;;;;;;;5.65;4.75;;;;;;;;;;5073059;28;20025;-59
2023/01/14 03:52:42;;;;;;;5.90;5.07;;;;;;;;;;5073193;28;20389;-60
2023/01/14 03:55:25;;;;;;;6.00;4.88;;;;;;;;;;5073004;28;20024;-58
2023/01/14 03:58:00;;;;;;;6.85;5.05;;;;;;;;;;5072942;28;20020;-59
2023/01/14 04:00:31;;;;;;;9.23;5.07;;;;;;;;;;5072904;28;20055;-59
2023/01/14 04:02:59;;;;;;;6.85;5.38;;;;;;;;;;5072765;28;20024;-59
2023/01/14 04:05:24;;;;;;;6.32;4.88;;;;;;;;;;5072948;28;20040;-59
2023/01/14 04:07:53;;;;;;;5.60;5.00;;;;;;;;;;5072631;28;20025;-59
2023/01/14 04:10:18;;;;;;;5.50;4.72;;;;;;;;;;5073017;28;20020;-59
2023/01/14 04:15:28;;;;;;;6.10;4.97;;;;;;;;;;5073009;28;20042;-59
2023/01/14 04:17:54;;;;;;;6.65;5.22;;;;;;;;;;5072572;28;20016;-59
2023/01/14 04:20:19;;;;;;;5.95;4.80;;;;;;;;;;5072571;28;20024;-59
2023/01/14 04:22:45;;;;;;;6.80;5.32;;;;;;;;;;5072400;28;20025;-60
2023/01/14 04:25:11;;;;;;;7.00;5.35;;;;;;;;;;5071748;28;20035;-59
2023/01/14 04:27:37;;;;;;;6.43;5.10;;;;;;;;;;5072511;28;20376;-59
2023/01/14 04:30:03;;;;;;;6.10;5.13;;;;;;;;;;5072401;28;20119;-59
2023/01/14 04:32:28;;;;;;;6.53;5.10;;;;;;;;;;5054594;28;20111;-59
2023/01/14 04:34:54;;;;;;;6.95;4.88;;;;;;;;;;5072335;28;20467;-59
2023/01/14 04:37:19;;;;;;;6.63;5.47;;;;;;;;;;5072611;28;20036;-59
2023/01/14 04:39:45;;;;;;;6.70;5.10;;;;;;;;;;5072276;28;20107;-59
2023/01/14 04:42:26;;;;;;;7.32;5.15;;;;;;;;;;5072533;28;20044;-58
2023/01/14 04:44:56;;;;;;;7.47;5.60;;;;;;;;;;5072162;28;20024;-59
2023/01/14 04:47:21;;;;;;;6.57;5.13;;;;;;;;;;5072267;28;20082;-59
2023/01/14 04:49:47;;;;;;;6.00;4.97;;;;;;;;;;5072131;28;20025;-59
2023/01/14 04:52:12;;;;;;;7.35;5.35;;;;;;;;;;5072195;28;20025;-59
2023/01/14 04:54:38;;;;;;;6.28;5.22;;;;;;;;;;5072430;28;20456;-58
2023/01/14 04:57:03;;;;;;;7.10;5.07;;;;;;;;;;5072422;28;20032;-58
2023/01/14 04:59:29;;;;;;;6.43;4.97;;;;;;;;;;5072458;28;20047;-58
2023/01/14 05:01:54;;;;;;;5.85;5.20;;;;;;;;;;5072084;28;20040;-58
2023/01/14 05:04:20;;;;;;;6.97;4.93;;;;;;;;;;5071987;28;20029;-59
2023/01/14 05:06:46;;;;;;;6.82;5.10;;;;;;;;;;5071969;28;20029;-59
2023/01/14 05:09:11;;;;;;;5.85;5.25;;;;;;;;;;5072039;28;20028;-59
2023/01/14 05:11:37;;;;;;;6.75;5.57;;;;;;;;;;5072012;28;20029;-59
2023/01/14 05:14:02;;;;;;;6.15;4.93;;;;;;;;;;5072026;28;20029;-59
2023/01/14 05:16:28;;;;;;;6.70;4.97;;;;;;;;;;5072197;28;20024;-60
2023/01/14 05:18:53;;;;;;;6.43;5.00;;;;;;;;;;5072212;28;20506;-59
2023/01/14 05:21:19;;;;;;;6.75;5.15;;;;;;;;;;5071841;28;20447;-59
2023/01/14 05:23:46;;;;;;;6.85;5.20;;;;;;;;;;5071734;28;20540;-59
2023/01/14 05:26:11;;;;;;;6.70;5.32;;;;;;;;;;5071854;28;20074;-58
2023/01/14 05:28:37;;;;;;;5.72;5.05;;;;;;;;;;5071803;28;20431;-59
2023/01/14 05:31:03;;;;;;;6.07;5.18;;;;;;;;;;5071769;28;20063;-59
2023/01/14 05:33:29;;;;;;;7.45;5.38;;;;;;;;;;5053475;28;20055;-58
2023/01/14 05:35:56;;;;;;;5.93;5.20;;;;;;;;;;5073160;28;20041;-58
2023/01/14 05:38:23;;;;;;;6.32;5.22;;;;;;;;;;5075482;28;20472;-60
2023/01/14 05:40:48;;;;;;;6.72;5.50;;;;;;;;;;5075464;28;20147;-58
2023/01/14 05:46:06;;;;;;;7.20;5.35;;;;;;;;;;5075493;28;20502;-58
2023/01/14 05:48:32;;;;;;;6.68;5.32;;;;;;;;;;5075556;28;20033;-59
2023/01/14 05:50:59;;;;;;;6.75;5.22;;;;;;;;;;5075294;28;20468;-60
2023/01/14 05:53:29;;;;;;;6.65;5.45;;;;;;;;;;5075318;28;20614;-60
2023/01/14 05:55:57;;;;;;;7.07;5.40;;;;;;;;;;5075221;28;20028;-59
2023/01/14 05:58:24;;;;;;;5.47;4.60;;;;;;;;;;5075086;28;20032;-60
2023/01/14 06:06:22;;;;;;;7.47;5.63;;;;;;;;;;5075335;28;20032;-60
2023/01/14 06:08:57;;;;;;;7.90;5.47;;;;;;;;;;5056964;28;20025;-60
2023/01/14 06:11:25;;;;;;;7.30;5.32;;;;;;;;;;5057308;28;20408;-60
2023/01/14 06:13:52;;;;;;;6.82;5.22;;;;;;;;;;5074816;28;20039;-60
2023/01/14 06:16:18;;;;;;;5.63;5.03;;;;;;;;;;5074798;28;20025;-60
2023/01/14 06:18:44;;;;;;;6.03;5.10;;;;;;;;;;5074732;28;20032;-59
2023/01/14 06:21:13;;;;;;;6.53;5.30;;;;;;;;;;5074793;28;20024;-60
2023/01/14 06:23:39;;;;;;;6.35;5.53;;;;;;;;;;5074667;28;20029;-60
2023/01/14 06:26:09;;;;;;;5.90;5.30;;;;;;;;;;5074646;28;20380;-61
2023/01/14 06:28:35;;;;;;;7.88;5.22;;;;;;;;;;5074803;28;20025;-60
2023/01/14 06:31:01;;;;;;;8.00;5.43;;;;;;;;;;5074706;28;20060;-60
2023/01/14 06:33:26;;;;;;;8.05;5.85;;;;;;;;;;5074272;28;20500;-61
2023/01/14 06:35:55;;;;;;;6.95;5.43;;;;;;;;;;5074709;28;20107;-60
2023/01/14 06:38:21;;;;;;;6.63;5.30;;;;;;;;;;5074455;28;20032;-60
2023/01/14 06:40:46;;;;;;;6.78;5.60;;;;;;;;;;5074417;28;20021;-60
2023/01/14 06:43:12;;;;;;;7.40;5.75;;;;;;;;;;5074909;28;20410;-60
2023/01/14 06:45:38;;;;;;;7.30;5.45;;;;;;;;;;5074180;28;20388;-60
2023/01/14 06:48:03;;;;;;;6.63;5.47;;;;;;;;;;5073867;28;20070;-60
2023/01/14 06:50:29;;;;;;;5.78;5.18;;;;;;;;;;5074486;28;20472;-59
2023/01/14 06:52:59;;;;;;;7.25;5.50;;;;;;;;;;5056330;28;20499;-59
2023/01/14 06:55:25;;;;;;;7.13;5.25;;;;;;;;;;5074484;28;20435;-58
2023/01/14 06:57:50;;;;;;;7.22;5.55;;;;;;;;;;5056574;28;20024;-59
2023/01/14 07:00:16;;;;;;;8.13;5.35;;;;;;;;;;5074150;28;20017;-62
2023/01/14 07:02:42;;;;;;;5.70;4.82;;;;;;;;;;5074194;28;20033;-59
2023/01/14 07:05:07;;;;;;;6.70;5.40;;;;;;;;;;5074002;28;20028;-59
2023/01/14 07:07:33;;;;;;;6.68;5.60;;;;;;;;;;5073933;28;20039;-59
2023/01/14 07:09:58;;;;;;;6.80;5.45;;;;;;;;;;5073816;28;20029;-60
2023/01/14 07:12:24;;;;;;;6.57;5.53;;;;;;;;;;5074005;28;20028;-59
2023/01/14 07:14:49;;;;;;;7.10;5.13;;;;;;;;;;5073994;28;20024;-60
2023/01/14 07:17:15;;;;;;;6.63;5.30;;;;;;;;;;5073725;28;20032;-59
2023/01/14 07:19:40;;;;;;;6.72;5.40;;;;;;;;;;5073831;28;20029;-60
2023/01/14 07:22:06;;;;;;;5.70;5.03;;;;;;;;;;5073843;28;20372;-59
2023/01/14 07:24:32;;;;;;;6.13;5.35;;;;;;;;;;5073374;28;20032;-60
2023/01/14 07:26:57;;;;;;;6.28;5.18;;;;;;;;;;5055660;28;20016;-60
2023/01/14 07:29:23;;;;;;;5.78;5.18;;;;;;;;;;5073398;28;20107;-59
2023/01/14 07:31:48;;;;;;;6.50;5.60;;;;;;;;;;5073433;28;20100;-60
2023/01/14 07:34:14;;;;;;;6.75;5.25;;;;;;;;;;5073033;28;20074;-60
2023/01/14 07:36:39;;;;;;;6.80;6.03;;;;;;;;;;5073272;28;20029;-59
2023/01/14 07:39:05;;;;;;;6.15;4.80;;;;;;;;;;5073282;28;20522;-59
2023/01/14 07:41:31;;;;;;;7.32;5.35;;;;;;;;;;5074708;28;20070;-60
2023/01/14 07:43:56;;;;;;;6.38;5.32;;;;;;;;;;5073377;28;20407;-59
2023/01/14 07:46:22;;;;;;;6.50;5.18;;;;;;;;;;5073668;28;20047;-63
2023/01/14 07:48:47;;;;;;;6.13;5.03;;;;;;;;;;5073143;28;20473;-60
2023/01/14 07:51:20;;;;;;;6.47;5.38;;;;;;;;;;5073055;28;20036;-59
2023/01/14 07:53:46;;;;;;;6.38;5.05;;;;;;;;;;5073071;28;20028;-60
2023/01/14 07:56:12;;;;;;;6.85;5.65;;;;;;;;;;5072887;28;20028;-59
2023/01/14 07:58:37;;;;;;;6.57;5.45;;;;;;;;;;5072678;28;20031;-59
2023/01/14 08:01:08;;;;;;;6.65;5.60;;;;;;;;;;5072256;28;20391;-60
2023/01/14 08:03:33;;;;;;;;;;;;;;;;;;5072829;28;20085;-59
2023/01/14 08:06:04;;;;;;;6.70;5.43;;;;;;;;;;5073059;28;19916;-59
2023/01/14 08:08:29;;;;;;;6.60;5.70;;;;;;;;;;5072640;28;20124;-60
2023/01/14 08:10:58;;;;;;;8.18;6.25;;;;;;;;;;5072716;28;20098;-59
2023/01/14 08:13:24;;;;;;;6.90;5.80;;;;;;;;;;5072831;28;20036;-60
2023/01/14 08:15:57;;;;;;;7.22;5.80;;;;;;;;;;5072604;28;20024;-60
2023/01/14 08:18:22;;;;;;;6.50;5.43;;;;;;;;;;5072609;28;20086;-60
2023/01/14 08:20:54;;;;;;;6.25;5.30;;;;;;;;;;5072491;28;20460;-59
2023/01/14 08:23:20;;;;;;;6.07;5.32;;;;;;;;;;5072806;28;20380;-60
2023/01/14 08:25:45;;;;;;;6.93;5.68;;;;;;;;;;5072478;28;20043;-60
2023/01/14 08:28:11;;;;;;;7.50;5.43;;;;;;;;;;5068235;28;20020;-64
2023/01/14 08:30:36;;;;;;;6.40;5.38;;;;;;;;;;5067459;28;20040;-61
2023/01/14 08:33:02;;;;;;;7.10;5.32;;;;;;;;;;5066900;28;20051;-65
2023/01/14 08:35:28;;;;;;;6.75;5.60;;;;;;;;;;5067590;28;20013;-62
2023/01/14 08:37:54;;;;;;;7.10;5.43;;;;;;;;;;5067652;28;20111;-60
2023/01/14 08:40:19;;;;;;;6.78;5.57;;;;;;;;;;5067566;28;20074;-59
2023/01/14 08:42:45;;;;;;;7.40;5.72;;;;;;;;;;5067640;28;20025;-59
2023/01/14 08:45:11;;;;;;;7.20;5.63;;;;;;;;;;5067451;28;20024;-66
2023/01/14 08:47:42;;;;;;;7.30;5.78;;;;;;;;;;5067157;28;20017;-59
2023/01/14 08:50:09;;;;;;;6.70;5.43;;;;;;;;;;5066496;28;20384;-60
2023/01/14 08:52:36;;;;;;;7.90;5.68;;;;;;;;;;5066817;28;20024;-59
2023/01/14 08:55:02;;;;;;;6.72;5.65;;;;;;;;;;5067214;28;20051;-61
2023/01/14 08:57:28;;;;;;;6.88;5.47;;;;;;;;;;5067451;28;20056;-60
2023/01/14 08:59:54;;;;;;;6.50;5.78;;;;;;;;;;5067142;28;20122;-67
2023/01/14 09:02:19;;;;;;;6.78;5.35;;;;;;;;;;5067183;28;20170;-60
2023/01/14 09:04:45;;;;;;;7.68;5.43;;;;;;;;;;5067132;28;20024;-60
2023/01/14 09:18:07;;;;;;;6.50;5.22;;;;;;;;;;5071106;28;20071;-60
2023/01/14 09:20:36;;;;;;;6.90;5.90;;;;;;;;;;5071318;28;20107;-60
2023/01/14 09:23:03;;;;;;;6.57;5.35;;;;;;;;;;5069642;28;20024;-61
2023/01/14 09:25:29;;;;;;;5.75;5.20;;;;;;;;;;5069313;28;20531;-63
2023/01/14 09:27:54;;;;;;;6.90;5.68;;;;;;;;;;5070634;28;20100;-60
2023/01/14 09:30:20;;;;;;;7.05;5.25;;;;;;;;;;5070503;28;20048;-63
2023/01/14 09:32:46;;;;;;;6.22;5.43;;;;;;;;;;5070290;28;20025;-61
2023/01/14 09:35:12;;;;;;;8.00;5.90;;;;;;;;;;5067929;28;20095;-62
2023/01/14 09:37:37;;;;;;;6.95;5.63;;;;;;;;;;5074841;28;20040;-59
2023/01/14 09:40:04;;;;;;;6.82;5.72;;;;;;;;;;5071725;28;20097;-60
2023/01/14 09:42:48;;;;;;;7.47;5.68;;;;;;;;;;5073263;28;20465;-65
2023/01/14 09:45:31;;;;;;;6.90;5.63;;;;;;;;;;5068709;28;20040;-65
2023/01/14 09:48:00;;;;;;;6.82;5.82;;;;;;;;;;5074314;28;20028;-64
2023/01/14 09:51:02;;;;;;;6.30;5.00;;;;;;;;;;5073544;28;20020;-60
2023/01/14 09:53:52;;;;;;;7.25;5.30;;;;;;;;;;5069817;28;20036;-61
2023/01/14 09:56:35;;;;;;;7.97;5.65;;;;;;;;;;5062377;28;20503;-60
2023/01/14 09:59:10;;;;;;;6.43;5.28;;;;;;;;;;5062201;28;20513;-60
2023/01/14 10:01:46;;;;;;;6.55;5.18;;;;;;;;;;5063944;28;20025;-61
2023/01/14 10:04:36;;;;;;;6.72;5.40;;;;;;;;;;5070938;28;20043;-60
2023/01/14 10:07:03;;;;;;;6.35;5.30;;;;;;;;;;5055142;28;20391;-60
2023/01/14 10:09:42;;;;;;;6.88;5.50;;;;;;;;;;5069969;28;20045;-62
2023/01/14 10:12:16;;;;;;;6.32;5.50;;;;;;;;;;5072088;28;20055;-62
2023/01/14 10:14:49;;;;;;;7.03;5.63;;;;;;;;;;5072352;28;20090;-64
2023/01/14 10:17:20;;;;;;;7.03;5.38;;;;;;;;;;5069928;28;20139;-67
2023/01/14 10:19:47;;;;;;;6.43;5.32;;;;;;;;;;5072447;28;20507;-60
2023/01/14 10:22:42;;;;;;;7.05;5.18;;;;;;;;;;5072254;28;20044;-61
2023/01/14 10:25:20;;;;;;;6.68;5.70;;;;;;;;;;5070755;28;20472;-61
2023/01/14 10:27:51;;;;;;;6.22;5.50;;;;;;;;;;5074070;28;20043;-60
2023/01/14 10:30:33;;;;;;;7.60;6.13;;;;;;;;;;5074728;28;20082;-61
2023/01/14 10:33:03;;;;;;;6.05;5.45;;;;;;;;;;5074374;28;20021;-60
2023/01/14 10:35:36;;;;;;;6.70;5.80;;;;;;;;;;5074557;28;20033;-60
2023/01/14 10:38:02;;;;;;;5.72;5.10;;;;;;;;;;5074505;28;20592;-61
2023/01/14 10:40:29;;;;;;;6.68;5.40;;;;;;;;;;5074264;28;20488;-61
2023/01/14 10:42:57;;;;;;;6.75;5.45;;;;;;;;;;5073715;28;20388;-60
2023/01/14 10:45:23;;;;;;;6.40;5.68;;;;;;;;;;5054974;28;20032;-61
2023/01/14 10:47:53;;;;;;;6.50;5.65;;;;;;;;;;5073417;28;20460;-61
2023/01/14 10:50:27;;;;;;;6.18;5.28;;;;;;;;;;5074054;28;20021;-61
2023/01/14 10:52:53;;;;;;;6.70;5.93;;;;;;;;;;5073591;28;20028;-61
2023/01/14 10:55:24;;;;;;;5.75;5.15;;;;;;;;;;5073330;28;20074;-60
2023/01/14 10:57:58;;;;;;;6.00;5.13;;;;;;;;;;5074043;28;20016;-61
2023/01/14 11:00:32;;;;;;;6.10;4.97;;;;;;;;;;5074328;28;20117;-59
2023/01/14 11:02:59;;;;;;;5.97;5.18;;;;;;;;;;5073931;28;20514;-60
2023/01/14 11:05:32;;;;;;;6.40;5.43;;;;;;;;;;5073653;28;20028;-60
2023/01/14 11:08:05;;;;;;;6.93;5.43;;;;;;;;;;5073804;28;20028;-59
2023/01/14 11:10:32;;;;;;;5.80;5.20;;;;;;;;;;5073882;28;20029;-59
2023/01/14 11:13:25;;;;;;;5.47;4.93;;;;;;;;;;5073813;28;20021;-59
2023/01/14 11:15:51;;;;;;;6.05;5.45;;;;;;;;;;5027965;28;20407;-62
2023/01/14 11:18:19;;;;;;;6.20;5.15;;;;;;;;;;5073692;28;20029;-59
2023/01/14 11:21:00;;;;;;;5.93;5.30;;;;;;;;;;5073904;28;20029;-59
2023/01/14 11:23:54;;;;;;;5.63;4.88;;;;;;;;;;5073568;28;20039;-59
2023/01/14 11:26:40;;;;;;;6.15;5.18;;;;;;;;;;5029755;28;20396;-60
2023/01/14 11:29:22;;;;;;;5.95;4.82;;;;;;;;;;5072893;28;20036;-60
2023/01/14 11:31:50;;;;;;;5.85;5.20;;;;;;;;;;5073475;28;20033;-63
2023/01/14 11:34:32;;;;;;;6.40;5.15;;;;;;;;;;5073197;28;20098;-59
2023/01/14 11:37:24;;;;;;;5.30;4.80;;;;;;;;;;5073493;28;20024;-59
2023/01/14 11:39:59;;;;;;;5.43;4.93;;;;;;;;;;5072579;28;20029;-62
2023/01/14 11:42:38;;;;;;;5.53;4.88;;;;;;;;;;5073192;28;20027;-61
2023/01/14 11:45:10;;;;;;;6.15;5.50;;;;;;;;;;5073575;28;20099;-62
2023/01/14 11:47:52;;;;;;;8.88;6.53;;;;;;;;;;5071141;28;20438;-64
2023/01/14 11:50:19;;;;;;;8.85;5.95;;;;;;;;;;5072979;28;20039;-62
2023/01/14 11:53:15;;;;;;;10.95;6.80;;;;;;;;;;5072941;28;20032;-61
2023/01/14 11:55:42;;;;;;;10.55;6.97;;;;;;;;;;5066636;28;20040;-61
2023/01/14 11:58:14;;;;;;;11.27;6.63;;;;;;;;;;5071566;28;20154;-61
2023/01/14 12:00:41;;;;;;;7.95;6.13;;;;;;;;;;5072361;28;20032;-62
2023/01/14 12:03:34;;;;;;;9.85;6.50;;;;;;;;;;5073032;28;20052;-62
2023/01/14 12:06:04;;;;;;;13.88;5.03;;;;;;;;;;5072736;28;20024;-61
2023/01/14 12:08:33;;;;;;;6.65;4.95;;;;;;;;;;5072931;28;20102;-61
2023/01/14 12:11:01;;;;;;;11.45;4.63;;;;;;;;;;5072551;28;20024;-60
2023/01/14 12:16:48;;;;;;;5.75;4.40;;;;;;;;;;5070668;28;20039;-60
2023/01/14 12:19:25;;;;;;;7.80;4.32;;;;;;;;;;5072624;28;20463;-61
2023/01/14 12:21:56;;;;;;;6.40;4.50;;;;;;;;;;5072218;28;20078;-61
2023/01/14 12:24:24;;;;;;;;;;;;;;;;;;5072404;28;20079;-58
2023/01/14 12:26:52;;;;;;;5.68;4.78;;;;;;;;;;5072707;28;19916;-60
2023/01/14 12:29:23;;;;;;;5.47;4.50;;;;;;;;;;5072430;28;20029;-60
2023/01/14 12:32:09;;;;;;;7.43;4.45;;;;;;;;;;5072493;28;20038;-60
2023/01/14 12:34:43;;;;;;;5.78;4.25;;;;;;;;;;5072278;28;20041;-61
2023/01/14 12:37:11;;;;;;;9.73;5.97;;;;;;;;;;5072359;28;20024;-61
2023/01/14 12:45:57;;;;;;;5.93;4.65;;;;;;;;;;5026832;28;20039;-60
2023/01/14 12:48:26;;;;;;;;;;;;;;;;;;5072992;28;20017;-59
2023/01/14 12:51:14;;;;;;;6.75;4.25;;;;;;;;;;5072314;28;19990;-59
2023/01/14 12:53:51;;;;;;;4.60;4.13;;;;;;;;;;5058801;28;20037;-58
2023/01/14 12:56:21;;;;;;;5.38;4.22;;;;;;;;;;5072271;28;20028;-63
2023/01/14 12:58:56;;;;;;;5.45;4.40;;;;;;;;;;5072412;28;20020;-63
2023/01/14 13:01:25;;;;;;;5.38;4.40;;;;;;;;;;5072253;28;20033;-59
2023/01/14 13:03:57;;;;;;;6.00;3.97;;;;;;;;;;5072074;28;20098;-59
2023/01/14 13:06:27;;;;;;;7.10;4.28;;;;;;;;;;5072424;28;20047;-59
2023/01/14 13:08:56;;;;;;;6.10;4.97;;;;;;;;;;5072172;28;20388;-62
2023/01/14 13:11:26;;;;;;;5.97;4.07;;;;;;;;;;5072376;28;20028;-61
2023/01/14 13:13:57;;;;;;;4.78;3.92;;;;;;;;;;5072107;28;20024;-61
2023/01/14 13:16:43;;;;;;;6.45;4.53;;;;;;;;;;5072184;28;20024;-60
2023/01/14 13:19:24;;;;;;;6.97;4.18;;;;;;;;;;5071963;28;20031;-61
2023/01/14 13:21:55;;;;;;;8.23;4.53;;;;;;;;;;5071893;28;20107;-60
2023/01/14 13:24:44;;;;;;;5.43;3.90;;;;;;;;;;5071877;28;20032;-61
2023/01/14 13:27:39;;;;;;;4.75;4.10;;;;;;;;;;5072035;28;20372;-60
2023/01/14 13:30:16;;;;;;;5.85;4.20;;;;;;;;;;5071974;28;20021;-60
2023/01/14 13:33:01;;;;;;;5.70;4.28;;;;;;;;;;5072084;28;20024;-61
2023/01/14 13:35:34;;;;;;;5.55;4.07;;;;;;;;;;5071800;28;20111;-60
2023/01/14 13:38:31;;;;;;;6.82;3.90;;;;;;;;;;5071823;28;20048;-61
2023/01/14 13:41:06;;;;;;;6.13;4.25;;;;;;;;;;5072077;28;20020;-60
2023/01/14 13:43:35;;;;;;;4.55;3.83;;;;;;;;;;5071823;28;20025;-60
2023/01/14 13:46:04;;;;;;;5.07;3.90;;;;;;;;;;5037207;28;20502;-61
2023/01/14 13:48:40;;;;;;;4.43;4.00;;;;;;;;;;5071936;28;20120;-60
2023/01/14 13:51:34;;;;;;;5.50;3.95;;;;;;;;;;5071703;28;20111;-61
2023/01/14 13:54:06;;;;;;;4.68;3.90;;;;;;;;;;5071727;28;20043;-60
2023/01/14 13:56:33;;;;;;;4.65;3.28;;;;;;;;;;5072264;28;20046;-60
2023/01/14 13:59:00;;;;;;;5.35;4.00;;;;;;;;;;5075253;28;20021;-60
2023/01/14 14:01:26;;;;;;;4.88;3.90;;;;;;;;;;5075265;28;20055;-60
2023/01/14 14:03:54;;;;;;;4.60;3.83;;;;;;;;;;5075119;28;20028;-58
2023/01/14 14:06:19;;;;;;;4.50;4.00;;;;;;;;;;5057191;28;20021;-55
2023/01/14 14:09:16;;;;;;;4.28;3.88;;;;;;;;;;5075120;28;20070;-56
2023/01/14 14:11:48;;;;;;;5.88;4.03;;;;;;;;;;5075028;28;20047;-62
2023/01/14 14:14:22;;;;;;;5.45;3.85;;;;;;;;;;5057027;28;20063;-58
2023/01/14 14:16:57;;;;;;;5.90;4.10;;;;;;;;;;5075277;28;20021;-58
2023/01/14 14:19:45;;;;;;;4.32;3.78;;;;;;;;;;5074905;28;20035;-55
2023/01/14 14:22:19;;;;;;;5.22;4.00;;;;;;;;;;5074964;28;20366;-58
2023/01/14 14:24:48;;;;;;;4.53;3.60;;;;;;;;;;5056755;28;20037;-57
2023/01/14 14:27:20;;;;;;;4.45;3.78;;;;;;;;;;5074818;28;20150;-55
2023/01/14 14:29:47;;;;;;;4.97;3.75;;;;;;;;;;5074721;28;20391;-60
2023/01/14 14:32:19;;;;;;;5.78;3.78;;;;;;;;;;5074662;28;20028;-60
2023/01/14 14:35:14;;;;;;;5.00;3.92;;;;;;;;;;5056483;28;20101;-60
2023/01/14 14:37:45;;;;;;;3.53;3.20;;;;;;;;;;5074590;28;20036;-60
2023/01/14 14:40:25;;;;;;;3.90;3.47;;;;;;;;;;5074583;28;20027;-57
2023/01/14 14:42:51;;;;;;;5.13;3.92;;;;;;;;;;5074495;28;20024;-59
2023/01/14 14:45:37;;;;;;;4.35;3.90;;;;;;;;;;5074389;28;20060;-59
2023/01/14 14:48:25;;;;;;;4.45;3.70;;;;;;;;;;5074698;28;20376;-58
2023/01/14 14:50:51;;;;;;;7.35;3.70;;;;;;;;;;5074600;28;20471;-59
2023/01/14 14:53:34;;;;;;;4.75;3.78;;;;;;;;;;5074305;28;20064;-59
2023/01/14 14:56:05;;;;;;;4.32;3.78;;;;;;;;;;5074425;28;20388;-59
2023/01/14 14:58:31;;;;;;;4.63;3.72;;;;;;;;;;5074248;28;20530;-59
2023/01/14 15:01:04;;;;;;;3.65;3.35;;;;;;;;;;5074194;28;20032;-59
2023/01/14 15:03:33;;;;;;;4.35;3.58;;;;;;;;;;5074012;28;20021;-57
2023/01/14 15:06:00;;;;;;;5.80;3.75;;;;;;;;;;5073913;28;20032;-56
2023/01/14 15:08:33;;;;;;;4.53;3.50;;;;;;;;;;5073409;28;20049;-58
2023/01/14 15:11:01;;;;;;;5.22;3.80;;;;;;;;;;5073938;28;20078;-57
2023/01/14 15:13:33;;;;;;;3.78;3.33;;;;;;;;;;5073815;28;20025;-59
2023/01/14 15:16:10;;;;;;;4.47;3.88;;;;;;;;;;5073898;28;20035;-57
2023/01/14 15:18:45;;;;;;;4.93;3.30;;;;;;;;;;5073744;28;20027;-58
2023/01/14 15:21:12;;;;;;;5.28;3.53;;;;;;;;;;5074069;28;20100;-58
2023/01/14 15:23:47;;;;;;;4.30;3.47;;;;;;;;;;5073856;28;20032;-59
2023/01/14 15:26:17;;;;;;;5.18;3.47;;;;;;;;;;5073664;28;20039;-57
2023/01/14 15:28:44;;;;;;;4.23;3.50;;;;;;;;;;5073594;28;20056;-57
2023/01/14 15:31:19;;;;;;;4.32;3.35;;;;;;;;;;5055981;28;20035;-58
2023/01/14 15:34:01;;;;;;;4.68;3.42;;;;;;;;;;5073212;28;20511;-59
2023/01/14 15:36:28;;;;;;;4.55;3.38;;;;;;;;;;5073654;28;20376;-58
2023/01/14 15:38:54;;;;;;;4.68;3.38;;;;;;;;;;5055578;28;20028;-58
2023/01/14 15:41:23;;;;;;;4.13;3.38;;;;;;;;;;5073313;28;20029;-58
2023/01/14 15:43:49;;;;;;;4.10;3.40;;;;;;;;;;5055314;28;20392;-58